createdAt,value
2023-02-28T00:00:46.452Z,6.32
2023-02-28T00:03:13.560Z,7.95
2023-02-28T00:05:40.801Z,6.35
2023-02-28T00:08:08.089Z,6.53
2023-02-28T00:10:35.725Z,6.13
2023-02-28T00:13:05.886Z,6.18
2023-02-28T00:15:34.019Z,5.93
2023-02-28T00:18:01.316Z,5.63
2023-02-28T00:20:28.446Z,5.93
2023-02-28T00:22:56.769Z,6.65
2023-02-28T00:25:26.121Z,5.22
2023-02-28T00:27:53.723Z,7.75
2023-02-28T00:30:23.186Z,6.45
2023-02-28T00:32:59.151Z,5.30
2023-02-28T00:35:26.131Z,5.65
2023-02-28T00:37:53.260Z,8.07
2023-02-28T00:40:20.416Z,6.20
2023-02-28T00:42:47.404Z,6.28
2023-02-28T00:45:14.578Z,7.82
2023-02-28T00:47:41.671Z,7.10
2023-02-28T00:50:09.760Z,6.63
2023-02-28T00:52:37.488Z,4.82
2023-02-28T00:55:05.077Z,5.95
2023-02-28T00:57:32.254Z,6.78
2023-02-28T00:59:59.353Z,6.78
2023-02-28T01:02:26.459Z,6.03
2023-02-28T01:04:53.550Z,5.15
2023-02-28T01:07:20.676Z,5.80
2023-02-28T01:09:47.749Z,4.90
2023-02-28T01:12:14.880Z,6.50
2023-02-28T01:14:41.944Z,7.85
2023-02-28T01:17:09.855Z,7.32
2023-02-28T01:19:37.247Z,6.13
2023-02-28T01:22:06.274Z,6.78
2023-02-28T01:24:34.561Z,7.07
2023-02-28T01:27:01.741Z,7.15
2023-02-28T01:29:28.789Z,5.35
2023-02-28T01:31:55.885Z,6.15
2023-02-28T01:34:23.121Z,6.47
2023-02-28T01:36:51.744Z,5.38
2023-02-28T01:39:19.674Z,6.10
2023-02-28T01:41:46.797Z,7.53
2023-02-28T01:44:51.553Z,6.28
2023-02-28T01:47:18.677Z,7.05
2023-02-28T01:49:46.062Z,7.10
2023-02-28T01:52:19.308Z,7.32
2023-02-28T01:54:52.025Z,9.10
2023-02-28T01:57:27.543Z,6.63
2023-02-28T02:00:08.603Z,6.40
2023-02-28T02:05:15.092Z,5.30
2023-02-28T02:10:17.509Z,8.27
2023-02-28T02:13:26.399Z,6.72
2023-02-28T02:16:08.691Z,5.57
2023-02-28T02:18:53.347Z,6.35
2023-02-28T02:21:38.593Z,8.75
2023-02-28T02:27:08.492Z,8.23
2023-02-28T02:29:35.651Z,8.13
2023-02-28T02:32:14.612Z,6.35
2023-02-28T02:34:52.186Z,6.32
2023-02-28T02:37:32.448Z,6.25
2023-02-28T02:40:03.006Z,9.27
2023-02-28T02:42:58.194Z,8.45
2023-02-28T02:45:36.883Z,8.85
2023-02-28T02:48:08.210Z,7.13
2023-02-28T02:50:40.296Z,6.25
2023-02-28T02:53:10.263Z,6.85
2023-02-28T02:55:44.161Z,7.30
2023-02-28T02:58:22.876Z,5.32
2023-02-28T03:00:54.633Z,5.88
2023-02-28T03:03:29.978Z,8.73
2023-02-28T03:06:00.234Z,6.90
2023-02-28T03:08:28.301Z,6.80
2023-02-28T03:11:02.356Z,5.40
2023-02-28T03:13:52.613Z,6.60
2023-02-28T03:16:30.138Z,6.75
2023-02-28T03:19:18.727Z,7.88
2023-02-28T03:22:14.658Z,6.25
2023-02-28T03:24:56.109Z,8.32
2023-02-28T03:27:43.483Z,6.70
2023-02-28T03:30:13.895Z,9.13
2023-02-28T03:32:59.647Z,7.68
2023-02-28T03:35:32.273Z,6.47
2023-02-28T03:38:37.971Z,6.28
2023-02-28T03:41:15.346Z,6.30
2023-02-28T03:43:50.411Z,7.40
2023-02-28T03:46:22.490Z,7.00
2023-02-28T03:49:03.700Z,5.97
2023-02-28T03:51:32.374Z,5.90
2023-02-28T03:54:05.863Z,6.93
2023-02-28T03:56:38.695Z,5.60
2023-02-28T03:59:12.004Z,6.72
2023-02-28T04:01:50.031Z,5.35
2023-02-28T04:04:18.415Z,7.13
2023-02-28T04:06:46.289Z,6.20
2023-02-28T04:09:15.484Z,6.97
2023-02-28T04:11:46.078Z,6.88
2023-02-28T04:14:13.443Z,7.75
2023-02-28T04:16:42.584Z,7.45
2023-02-28T04:19:12.253Z,6.40
2023-02-28T04:21:44.944Z,5.22
2023-02-28T04:24:15.512Z,7.10
2023-02-28T04:26:45.485Z,6.57
2023-02-28T04:29:14.444Z,7.28
2023-02-28T04:31:41.836Z,6.60
2023-02-28T04:34:08.967Z,7.03
2023-02-28T04:36:36.207Z,7.32
2023-02-28T04:39:03.761Z,8.02
2023-02-28T04:41:32.821Z,8.40
2023-02-28T04:44:00.227Z,7.97
2023-02-28T04:46:27.272Z,7.50
2023-02-28T04:48:55.600Z,7.22
2023-02-28T04:51:22.979Z,5.47
2023-02-28T04:53:50.132Z,8.25
2023-02-28T04:56:18.727Z,7.28
2023-02-28T04:58:46.713Z,5.70
2023-02-28T05:01:24.454Z,5.80
2023-02-28T05:03:52.364Z,7.03
2023-02-28T05:06:21.373Z,6.60
2023-02-28T05:08:48.572Z,8.00
2023-02-28T05:11:22.415Z,7.72
2023-02-28T05:13:50.365Z,6.93
2023-02-28T05:16:18.422Z,9.05
2023-02-28T05:18:46.134Z,8.07
2023-02-28T05:21:34.484Z,7.55
2023-02-28T05:24:07.800Z,5.72
2023-02-28T05:26:42.766Z,8.45
2023-02-28T05:29:11.021Z,7.60
2023-02-28T05:31:39.702Z,7.28
2023-02-28T05:34:06.874Z,7.97
2023-02-28T05:36:34.247Z,6.88
2023-02-28T05:39:01.352Z,8.43
2023-02-28T05:41:28.769Z,14.82
2023-02-28T05:43:56.129Z,7.40
2023-02-28T05:46:23.302Z,5.75
2023-02-28T05:48:50.530Z,7.38
2023-02-28T05:51:18.777Z,7.85
2023-02-28T05:53:45.850Z,7.93
2023-02-28T05:56:16.228Z,6.95
2023-02-28T05:58:43.716Z,7.13
2023-02-28T06:01:38.939Z,7.45
2023-02-28T06:04:14.335Z,8.07
2023-02-28T06:06:47.643Z,6.00
2023-02-28T06:09:14.863Z,8.85
2023-02-28T06:11:42.632Z,8.25
2023-02-28T06:14:16.081Z,7.95
2023-02-28T06:16:43.285Z,7.63
2023-02-28T06:19:11.000Z,10.10
2023-02-28T06:21:38.568Z,7.30
2023-02-28T06:24:06.078Z,8.55
2023-02-28T06:26:33.326Z,9.95
2023-02-28T06:29:01.936Z,8.27
2023-02-28T06:31:30.611Z,8.75
2023-02-28T06:33:57.919Z,8.32
2023-02-28T06:36:25.219Z,9.80
2023-02-28T06:38:55.882Z,9.10
2023-02-28T06:41:24.705Z,8.15
2023-02-28T06:43:51.677Z,13.68
2023-02-28T06:46:19.042Z,9.80
2023-02-28T06:48:46.444Z,10.93
2023-02-28T06:51:17.220Z,9.63
2023-02-28T06:53:44.312Z,9.18
2023-02-28T06:56:14.037Z,10.70
2023-02-28T06:58:41.804Z,10.15
2023-02-28T07:01:09.519Z,11.13
2023-02-28T07:03:37.819Z,8.02
2023-02-28T07:06:06.584Z,8.77
2023-02-28T07:08:34.663Z,8.38
2023-02-28T07:11:01.749Z,9.70
2023-02-28T07:13:28.910Z,10.15
2023-02-28T07:16:01.501Z,7.32
2023-02-28T07:18:28.886Z,8.40
2023-02-28T07:20:56.448Z,8.55
2023-02-28T07:23:24.207Z,9.02
2023-02-28T07:25:52.406Z,7.70
2023-02-28T07:28:19.503Z,9.38
2023-02-28T07:30:46.694Z,9.93
2023-02-28T07:33:13.697Z,8.07
2023-02-28T07:35:40.965Z,7.57
2023-02-28T07:38:08.826Z,7.65
2023-02-28T07:40:36.527Z,8.85
2023-02-28T07:43:04.570Z,14.48
2023-02-28T07:45:35.573Z,8.15
2023-02-28T07:48:03.376Z,7.78
2023-02-28T07:50:31.994Z,7.50
2023-02-28T07:53:00.372Z,7.88
2023-02-28T07:55:27.822Z,7.63
2023-02-28T07:57:55.350Z,13.55
2023-02-28T08:00:22.899Z,12.52
2023-02-28T08:02:50.264Z,8.25
2023-02-28T08:05:18.845Z,8.10
2023-02-28T08:07:48.767Z,7.15
2023-02-28T08:10:16.052Z,7.38
2023-02-28T08:12:43.161Z,7.70
2023-02-28T08:15:10.751Z,8.68
2023-02-28T08:17:37.890Z,8.73
2023-02-28T08:20:05.584Z,7.40
2023-02-28T08:22:32.558Z,5.50
2023-02-28T08:24:59.674Z,7.82
2023-02-28T08:27:26.728Z,7.70
2023-02-28T08:29:53.773Z,6.43
2023-02-28T08:32:29.286Z,7.40
2023-02-28T08:34:57.509Z,7.50
2023-02-28T08:37:24.668Z,5.68
2023-02-28T08:39:53.979Z,7.18
2023-02-28T08:42:22.852Z,7.45
2023-02-28T08:44:49.907Z,6.53
2023-02-28T08:47:17.123Z,5.47
2023-02-28T08:49:44.270Z,6.82
2023-02-28T08:52:11.225Z,6.78
2023-02-28T08:54:38.232Z,6.90
2023-02-28T08:57:05.454Z,6.75
2023-02-28T08:59:32.811Z,6.80
2023-02-28T09:01:59.855Z,7.55
2023-02-28T09:04:27.090Z,6.13
2023-02-28T09:06:54.124Z,8.02
2023-02-28T09:09:21.262Z,6.13
2023-02-28T09:11:48.302Z,6.10
2023-02-28T09:14:15.276Z,6.40
2023-02-28T09:16:42.283Z,5.10
2023-02-28T09:19:13.156Z,5.07
2023-02-28T09:21:40.556Z,6.32
2023-02-28T09:24:08.612Z,5.13
2023-02-28T09:26:42.734Z,6.30
2023-02-28T09:29:15.715Z,6.25
2023-02-28T09:31:42.729Z,8.00
2023-02-28T09:34:09.977Z,7.15
2023-02-28T09:36:45.264Z,5.78
2023-02-28T09:39:15.583Z,6.35
2023-02-28T09:41:51.550Z,7.20
2023-02-28T09:44:32.508Z,5.68
2023-02-28T09:47:06.836Z,5.75
2023-02-28T09:49:41.475Z,6.00
2023-02-28T09:52:17.321Z,8.20
2023-02-28T09:54:44.478Z,6.07
2023-02-28T09:57:30.799Z,6.78
2023-02-28T10:00:13.688Z,5.55
2023-02-28T10:02:52.860Z,5.65
2023-02-28T10:05:28.187Z,6.35
2023-02-28T10:08:12.997Z,6.53
2023-02-28T10:10:44.609Z,6.15
2023-02-28T10:13:17.821Z,5.78
2023-02-28T10:15:47.732Z,4.72
2023-02-28T10:18:21.714Z,5.85
2023-02-28T10:20:50.130Z,6.07
2023-02-28T10:23:37.117Z,6.32
2023-02-28T10:26:13.986Z,5.70
2023-02-28T10:28:41.502Z,7.15
2023-02-28T10:31:15.873Z,10.32
2023-02-28T10:33:42.967Z,7.32
2023-02-28T10:36:17.966Z,6.68
2023-02-28T10:38:46.301Z,6.70
2023-02-28T10:41:27.861Z,6.68
2023-02-28T10:44:14.799Z,6.72
2023-02-28T10:46:43.625Z,5.93
2023-02-28T10:49:24.944Z,6.32
2023-02-28T10:52:01.198Z,7.05
2023-02-28T10:54:30.856Z,6.63
2023-02-28T10:57:31.681Z,10.15
2023-02-28T11:00:17.041Z,6.68
2023-02-28T11:02:45.820Z,6.85
2023-02-28T11:05:33.307Z,5.95
2023-02-28T11:08:13.950Z,6.68
2023-02-28T11:10:45.536Z,7.28
2023-02-28T11:13:23.450Z,6.78
2023-02-28T11:15:56.727Z,7.07
2023-02-28T11:18:32.019Z,8.15
2023-02-28T11:21:02.277Z,6.15
2023-02-28T11:23:33.590Z,6.50
2023-02-28T11:26:03.019Z,7.40
2023-02-28T11:28:36.060Z,7.03
2023-02-28T11:31:05.784Z,6.88
2023-02-28T11:33:43.493Z,7.85
2023-02-28T11:36:25.743Z,6.25
2023-02-28T11:38:55.192Z,6.90
2023-02-28T11:41:28.392Z,6.65
2023-02-28T11:44:29.014Z,6.63
2023-02-28T11:47:02.052Z,6.22
2023-02-28T11:49:40.401Z,8.13
2023-02-28T11:52:30.595Z,9.05
2023-02-28T11:55:17.337Z,8.23
2023-02-28T11:57:57.146Z,8.27
2023-02-28T12:00:45.546Z,2.72
2023-02-28T12:03:38.632Z,3.35
2023-02-28T12:06:15.056Z,4.80
2023-02-28T12:09:10.242Z,4.78
2023-02-28T12:11:54.166Z,3.95
2023-02-28T12:14:48.704Z,5.18
2023-02-28T12:17:18.455Z,5.60
2023-02-28T12:19:58.099Z,5.47
2023-02-28T12:22:27.867Z,4.95
2023-02-28T12:25:21.442Z,5.80
2023-02-28T12:27:50.388Z,3.92
2023-02-28T12:30:28.226Z,2.90
2023-02-28T12:33:11.000Z,2.47
2023-02-28T12:35:58.153Z,2.70
2023-02-28T12:38:38.658Z,4.43
2023-02-28T12:41:21.802Z,7.88
2023-02-28T12:43:56.729Z,4.93
2023-02-28T12:46:42.697Z,5.90
2023-02-28T12:49:16.864Z,2.85
2023-02-28T12:51:45.863Z,1.45
2023-02-28T12:54:20.741Z,1.55
2023-02-28T12:59:59.522Z,3.15
2023-02-28T13:03:14.686Z,1.20
2023-02-28T13:06:26.628Z,1.70
2023-02-28T13:09:05.911Z,4.35
2023-02-28T13:11:46.380Z,4.40
2023-02-28T13:14:38.474Z,3.95
2023-02-28T13:17:08.273Z,3.90
2023-02-28T13:19:38.879Z,1.70
2023-02-28T13:22:06.964Z,1.30
2023-02-28T13:24:56.321Z,1.10
2023-02-28T13:27:35.935Z,1.35
2023-02-28T13:30:41.500Z,1.25
2023-02-28T13:33:30.004Z,0.98
2023-02-28T13:36:15.495Z,1.65
2023-02-28T13:38:57.562Z,0.90
2023-02-28T13:41:31.011Z,1.00
2023-02-28T13:44:21.112Z,1.10
2023-02-28T13:46:50.889Z,0.80
2023-02-28T13:49:26.429Z,0.80
2023-02-28T13:52:18.984Z,0.93
2023-02-28T13:55:12.919Z,1.48
2023-02-28T13:57:54.314Z,0.95
2023-02-28T14:00:36.269Z,1.50
2023-02-28T14:03:12.461Z,1.52
2023-02-28T14:05:39.975Z,0.90
2023-02-28T14:08:14.826Z,1.50
2023-02-28T14:10:48.260Z,1.40
2023-02-28T14:13:38.632Z,1.00
2023-02-28T14:16:08.236Z,1.35
2023-02-28T14:18:37.938Z,1.17
2023-02-28T14:21:13.478Z,1.15
2023-02-28T14:24:07.968Z,0.80
2023-02-28T14:27:03.029Z,0.98
2023-02-28T14:29:51.299Z,2.63
2023-02-28T14:32:33.993Z,1.08
2023-02-28T14:35:21.553Z,0.82
2023-02-28T14:37:50.773Z,0.90
2023-02-28T14:40:28.998Z,0.98
2023-02-28T14:43:07.865Z,0.50
2023-02-28T14:45:38.427Z,0.68
2023-02-28T14:48:10.860Z,0.70
2023-02-28T14:50:38.988Z,0.77
2023-02-28T14:53:13.636Z,0.90
2023-02-28T14:55:46.151Z,0.60
2023-02-28T14:58:25.051Z,0.90
2023-02-28T15:00:54.657Z,1.73
2023-02-28T15:03:26.245Z,1.52
2023-02-28T15:06:05.677Z,1.67
2023-02-28T15:08:37.271Z,1.38
2023-02-28T15:11:20.426Z,0.82
2023-02-28T15:13:51.005Z,0.57
2023-02-28T15:16:23.189Z,0.60
2023-02-28T15:19:07.263Z,0.50
2023-02-28T15:21:41.448Z,0.90
2023-02-28T15:24:28.682Z,1.67
2023-02-28T15:26:58.595Z,0.40
2023-02-28T15:29:37.466Z,1.63
2023-02-28T15:32:07.433Z,1.00
2023-02-28T15:34:44.406Z,0.50
2023-02-28T15:37:33.277Z,1.35
2023-02-28T15:40:13.543Z,1.42
2023-02-28T15:42:40.752Z,0.88
2023-02-28T15:45:29.787Z,0.60
2023-02-28T15:47:59.932Z,0.77
2023-02-28T15:50:31.925Z,0.60
2023-02-28T15:52:59.098Z,0.93
2023-02-28T15:55:29.333Z,0.70
2023-02-28T15:58:00.789Z,1.25
2023-02-28T16:00:29.644Z,0.80
2023-02-28T16:02:56.794Z,1.17
2023-02-28T16:05:34.917Z,1.48
2023-02-28T16:08:12.596Z,1.00
2023-02-28T16:10:39.646Z,1.40
2023-02-28T16:13:07.089Z,1.35
2023-02-28T16:15:43.570Z,0.80
2023-02-28T16:18:14.214Z,1.63
2023-02-28T16:20:41.625Z,2.35
2023-02-28T16:23:09.231Z,5.65
2023-02-28T16:25:39.673Z,3.80
2023-02-28T16:28:33.791Z,2.78
2023-02-28T16:31:03.841Z,4.00
2023-02-28T16:33:31.898Z,2.45
2023-02-28T16:35:59.072Z,2.70
2023-02-28T16:38:26.344Z,2.65
2023-02-28T16:40:57.231Z,4.05
2023-02-28T16:43:27.539Z,1.88
2023-02-28T16:46:01.338Z,1.52
2023-02-28T16:48:28.711Z,1.73
2023-02-28T16:50:55.665Z,9.07
2023-02-28T16:53:22.689Z,6.80
2023-02-28T16:55:51.937Z,3.58
2023-02-28T16:58:20.413Z,4.57
2023-02-28T17:00:47.332Z,5.82
2023-02-28T17:03:32.696Z,7.55
2023-02-28T17:06:00.760Z,6.68
2023-02-28T17:08:29.886Z,3.42
2023-02-28T17:10:57.243Z,8.98
2023-02-28T17:13:24.343Z,4.75
2023-02-28T17:15:51.677Z,1.23
2023-02-28T17:18:20.848Z,1.92
2023-02-28T17:20:48.236Z,1.80
2023-02-28T17:23:15.252Z,32.55
2023-02-28T17:25:42.232Z,19.13
2023-02-28T17:28:10.344Z,23.73
2023-02-28T17:30:37.597Z,32.83
2023-02-28T17:33:04.601Z,18.52
2023-02-28T17:35:31.578Z,15.25
2023-02-28T17:37:58.674Z,22.90
2023-02-28T17:40:25.752Z,4.47
2023-02-28T17:42:53.464Z,6.05
2023-02-28T17:45:21.080Z,6.47
2023-02-28T17:47:51.322Z,1.63
2023-02-28T17:50:22.832Z,3.42
2023-02-28T17:52:51.609Z,2.10
2023-02-28T17:55:20.120Z,2.50
2023-02-28T17:57:47.487Z,2.95
2023-02-28T18:00:18.491Z,3.55
2023-02-28T18:02:45.997Z,1.50
2023-02-28T18:05:13.099Z,1.50
2023-02-28T18:07:40.868Z,0.73
2023-02-28T18:10:17.219Z,1.00
2023-02-28T18:12:45.041Z,0.47
2023-02-28T18:15:12.221Z,1.00
2023-02-28T18:17:39.160Z,1.13
2023-02-28T18:20:07.149Z,0.77
2023-02-28T18:22:36.994Z,1.20
2023-02-28T18:25:05.956Z,1.50
2023-02-28T18:27:33.071Z,1.10
2023-02-28T18:30:00.037Z,0.70
2023-02-28T18:32:27.504Z,0.60
2023-02-28T18:34:54.680Z,1.05
2023-02-28T18:37:21.736Z,0.30
2023-02-28T18:39:48.666Z,27.88
2023-02-28T18:42:15.623Z,1.15
2023-02-28T18:44:42.790Z,0.40
2023-02-28T18:47:09.808Z,0.93
2023-02-28T18:49:38.195Z,0.55
2023-02-28T18:52:05.546Z,0.52
2023-02-28T18:54:32.638Z,1.50
2023-02-28T18:56:59.617Z,0.80
2023-02-28T18:59:26.628Z,1.17
2023-02-28T19:01:53.658Z,0.32
2023-02-28T19:04:20.678Z,0.55
2023-02-28T19:06:47.748Z,0.60
2023-02-28T19:09:14.876Z,0.52
2023-02-28T19:11:42.090Z,0.20
2023-02-28T19:14:09.762Z,0.22
2023-02-28T19:16:36.950Z,0.15
2023-02-28T19:19:04.009Z,0.38
2023-02-28T19:21:31.040Z,0.68
2023-02-28T19:23:58.155Z,0.60
2023-02-28T19:26:27.174Z,0.93
2023-02-28T19:28:54.355Z,0.38
2023-02-28T19:31:25.215Z,0.30
2023-02-28T19:33:53.138Z,0.52
2023-02-28T19:36:21.786Z,0.30
2023-02-28T19:38:49.408Z,1.02
2023-02-28T19:41:17.692Z,1.10
2023-02-28T19:43:44.703Z,1.58
2023-02-28T19:46:12.940Z,1.55
2023-02-28T19:48:40.460Z,0.77
2023-02-28T19:51:10.518Z,0.50
2023-02-28T19:53:39.153Z,0.30
2023-02-28T19:56:07.028Z,0.77
2023-02-28T19:58:34.753Z,0.50
2023-02-28T20:01:13.825Z,0.90
2023-02-28T20:03:41.247Z,1.40
2023-02-28T20:06:13.914Z,0.50
2023-02-28T20:08:41.114Z,1.75
2023-02-28T20:11:18.003Z,0.80
2023-02-28T20:13:45.701Z,0.70
2023-02-28T20:16:14.015Z,1.38
2023-02-28T20:18:44.199Z,0.50
2023-02-28T20:21:13.123Z,0.47
2023-02-28T20:23:40.892Z,0.28
2023-02-28T20:26:08.029Z,0.30
2023-02-28T20:28:35.097Z,0.40
2023-02-28T20:31:02.180Z,0.30
2023-02-28T20:33:29.270Z,0.70
2023-02-28T20:36:03.389Z,0.50
2023-02-28T20:38:30.490Z,0.40
2023-02-28T20:41:01.458Z,0.35
2023-02-28T20:43:29.257Z,1.48
2023-02-28T20:45:58.703Z,0.30
2023-02-28T20:48:26.096Z,0.52
2023-02-28T20:50:55.132Z,0.30
2023-02-28T20:53:24.283Z,0.30
2023-02-28T20:56:04.936Z,0.32
2023-02-28T20:58:35.764Z,0.55
2023-02-28T21:01:18.244Z,0.40
2023-02-28T21:03:48.017Z,1.00
2023-02-28T21:06:17.028Z,0.50
2023-02-28T21:08:45.079Z,0.60
2023-02-28T21:11:14.469Z,0.98
2023-02-28T21:13:42.679Z,0.35
2023-02-28T21:16:15.527Z,0.73
2023-02-28T21:18:42.844Z,0.57
2023-02-28T21:21:19.614Z,0.90
2023-02-28T21:23:47.318Z,1.05
2023-02-28T21:26:18.704Z,0.90
2023-02-28T21:28:54.882Z,0.82
2023-02-28T21:31:23.886Z,1.90
2023-02-28T21:33:53.766Z,1.20
2023-02-28T21:36:23.990Z,1.40
2023-02-28T21:38:57.469Z,0.80
2023-02-28T21:41:25.264Z,0.80
2023-02-28T21:43:53.336Z,1.05
2023-02-28T21:46:23.690Z,1.15
2023-02-28T21:48:51.207Z,0.82
2023-02-28T21:51:21.118Z,2.15
2023-02-28T21:53:48.638Z,3.42
2023-02-28T21:56:25.093Z,1.20
2023-02-28T21:59:00.345Z,2.65
2023-02-28T22:01:39.160Z,2.60
2023-02-28T22:04:09.226Z,1.30
2023-02-28T22:06:39.465Z,1.83
2023-02-28T22:09:09.173Z,1.25
2023-02-28T22:11:37.602Z,0.90
2023-02-28T22:14:06.799Z,1.45
2023-02-28T22:16:49.585Z,0.52
2023-02-28T22:19:18.226Z,0.75
2023-02-28T22:21:46.879Z,0.65
2023-02-28T22:24:14.917Z,0.70
2023-02-28T22:26:41.961Z,1.27
2023-02-28T22:29:09.375Z,1.15
2023-02-28T22:31:36.685Z,1.55
2023-02-28T22:34:06.832Z,0.63
2023-02-28T22:36:34.316Z,1.27
2023-02-28T22:39:01.893Z,1.35
2023-02-28T22:41:29.870Z,0.75
2023-02-28T22:44:00.092Z,1.27
2023-02-28T22:46:29.678Z,0.90
2023-02-28T22:48:58.802Z,1.13
2023-02-28T22:51:27.863Z,1.50
2023-02-28T22:53:56.935Z,2.33
2023-02-28T22:56:25.749Z,2.85
2023-02-28T22:58:55.885Z,1.70
2023-02-28T23:01:25.353Z,1.75
2023-02-28T23:03:52.698Z,1.02
2023-02-28T23:06:28.472Z,1.00
2023-02-28T23:08:57.811Z,0.90
2023-02-28T23:11:28.328Z,1.13
2023-02-28T23:14:01.315Z,1.00
2023-02-28T23:16:33.097Z,1.23
2023-02-28T23:19:02.845Z,1.25
2023-02-28T23:21:31.004Z,0.80
2023-02-28T23:23:58.467Z,0.70
2023-02-28T23:26:25.512Z,1.15
2023-02-28T23:28:52.634Z,1.05
2023-02-28T23:31:21.561Z,1.10
2023-02-28T23:33:48.620Z,1.00
2023-02-28T23:36:17.058Z,0.98
2023-02-28T23:38:48.003Z,1.60
2023-02-28T23:41:16.073Z,1.98
2023-02-28T23:43:43.966Z,1.45
2023-02-28T23:46:13.821Z,1.00
2023-02-28T23:48:41.472Z,1.27
2023-02-28T23:51:17.900Z,1.10
2023-02-28T23:53:47.230Z,2.05
2023-02-28T23:56:17.267Z,1.35
2023-02-28T23:58:45.958Z,1.10
